Joan Cenac — WDD5325 — position and weather

sailwx.info

Track history (hours):
 
Tides and Currents Weather Stations Pressure Air Temp Water Temp Dewpoint Dewpoint Depression Visibility Wind Speed Wind Dir Waves Ship Positions

Joan Cenac

Owner: Caillou Island Towing Co., Inc., Houma, LA. More information available from US FCC via Universal Licensing System and Coast Guard Vessel Documentation Center.

Last reported at 2017-Nov-30 16:27 UTC. Time now 2018-Jan-22 15:57 UTC.
Position N 29°33' W 090°26'.
Warning: this ship's position is 52 days out of date.

Length 30 m; draft 2.5 m.

Type: Towing. MMSI: 367156710.

Date/timePositionNaut miles runAvg speedWind from/ knotsBaromVisibWave heightAir tempDewpointWater temp
2017-Nov-30 16:27N 29°33' W 090°26'3 6.9
2017-Nov-30 16:00N 29°34' W 090°30'3 6.8
2017-Nov-30 15:30N 29°34' W 090°34'3 6.2
2017-Nov-30 15:00N 29°35' W 090°37'3 6.6
2017-Nov-30 14:30N 29°36' W 090°41'2 4.1
2017-Nov-30 14:00N 29°35' W 090°43'1 1.3
2017-Nov-30 13:30N 29°35' W 090°43'0 0.0
2017-Nov-30 13:00N 29°35' W 090°43'0 0.0
2017-Nov-30 12:30N 29°35' W 090°43'0 0.0
2017-Nov-30 12:00N 29°35' W 090°43'0 0.0
2017-Nov-30 11:30N 29°35' W 090°43'0 0.0
2017-Nov-30 11:00N 29°35' W 090°43'0 0.0
2017-Nov-30 10:30N 29°35' W 090°43'0 0.0
2017-Nov-30 10:00N 29°35' W 090°43'0 0.0
2017-Nov-30 09:30N 29°35' W 090°43'0 0.0
2017-Nov-30 09:00N 29°35' W 090°43'0 0.0
2017-Nov-30 08:30N 29°35' W 090°43'0 0.0
2017-Nov-30 08:00N 29°35' W 090°43'0 0.8
2017-Nov-30 07:30N 29°34' W 090°43'3 6.1
2017-Nov-30 07:00N 29°32' W 090°46'3 6.5
2017-Nov-30 06:30N 29°32' W 090°49'7 0.8
2017-Nov-29 22:02N 29°34' W 090°57'1 6.0
2017-Nov-29 21:54N 29°34' W 090°56'4 5.9
2017-Nov-29 21:13N 29°32' W 090°52'1 6.1
2017-Nov-29 21:00N 29°32' W 090°50'3 6.1
2017-Nov-29 20:30N 29°32' W 090°47'3 5.7
2017-Nov-29 20:01N 29°34' W 090°44'2 4.9
2017-Nov-29 19:31N 29°36' W 090°43'2 3.3
2017-Nov-29 19:00N 29°36' W 090°41'1 1.6
2017-Nov-29 18:30N 29°36' W 090°40'0 0.0
2017-Nov-29 18:00N 29°36' W 090°40'0 0.0
2017-Nov-29 17:30N 29°36' W 090°40'0 0.0
2017-Nov-29 17:01N 29°36' W 090°40'0 0.1
2017-Nov-29 16:31N 29°36' W 090°40'0 0.0
2017-Nov-29 16:01N 29°36' W 090°40'0 0.0
2017-Nov-29 15:30N 29°36' W 090°40'0 0.0
2017-Nov-29 15:00N 29°36' W 090°40'0 0.0
2017-Nov-29 14:30N 29°36' W 090°40'0 0.0
2017-Nov-29 14:00N 29°36' W 090°40'0 0.0
2017-Nov-29 13:30N 29°36' W 090°40'0 0.0
2017-Nov-29 13:00N 29°36' W 090°40'0 0.0
2017-Nov-29 12:30N 29°36' W 090°40'0 0.0
2017-Nov-29 12:00N 29°36' W 090°40'0 0.0
2017-Nov-29 11:30N 29°36' W 090°40'0 0.0
2017-Nov-29 11:00N 29°36' W 090°40'0 0.0
2017-Nov-29 10:30N 29°36' W 090°40'0 0.0
2017-Nov-29 10:00N 29°36' W 090°40'0 0.0
2017-Nov-29 09:30N 29°36' W 090°40'0 0.0
2017-Nov-29 09:00N 29°36' W 090°40'0 0.0
2017-Nov-29 08:30N 29°36' W 090°40'0 0.0
2017-Nov-29 08:00N 29°36' W 090°40'0 0.0
2017-Nov-29 07:30N 29°36' W 090°40'0 0.0
2017-Nov-29 07:00N 29°36' W 090°40'0 0.0
2017-Nov-29 06:30N 29°36' W 090°40'0 0.0
2017-Nov-29 06:00N 29°36' W 090°40'0 0.0
2017-Nov-29 05:30N 29°36' W 090°40'0 0.0
2017-Nov-29 05:00N 29°36' W 090°40'0 0.0
2017-Nov-29 04:30N 29°36' W 090°40'0 0.0
2017-Nov-29 04:00N 29°36' W 090°40'0 0.0
2017-Nov-29 03:30N 29°36' W 090°40'0 0.0
2017-Nov-29 03:00N 29°36' W 090°40'0 0.0
2017-Nov-29 02:30N 29°36' W 090°40'0 0.0
2017-Nov-29 02:00N 29°36' W 090°40'0 0.0
2017-Nov-29 01:30N 29°36' W 090°40'0 0.0
2017-Nov-29 01:00N 29°36' W 090°40'0 0.0
2017-Nov-29 00:30N 29°36' W 090°40'0 0.0
2017-Nov-29 00:00N 29°36' W 090°40'0 0.0
2017-Nov-28 23:30N 29°36' W 090°40'0 0.0
2017-Nov-28 23:00N 29°36' W 090°40'0 0.0
2017-Nov-28 22:30N 29°36' W 090°40'0 0.0
2017-Nov-28 22:00N 29°36' W 090°40'0 0.0
2017-Nov-28 21:30N 29°36' W 090°40'0 0.0
2017-Nov-28 21:00N 29°36' W 090°40'0 0.0
2017-Nov-28 20:30N 29°36' W 090°40'0 0.0
2017-Nov-28 20:00N 29°36' W 090°40'0 0.0
2017-Nov-28 19:30N 29°36' W 090°40'0 0.0
2017-Nov-28 19:00N 29°36' W 090°40'0 0.0
2017-Nov-28 18:30N 29°36' W 090°40'0 0.0
2017-Nov-28 18:00N 29°36' W 090°40'0 0.0
2017-Nov-28 17:30N 29°36' W 090°40'0 0.0
2017-Nov-28 17:00N 29°36' W 090°40'0 0.0
2017-Nov-28 16:30N 29°36' W 090°40'0 0.0
2017-Nov-28 15:36N 29°36' W 090°40'0 0.0
2017-Nov-28 15:00N 29°36' W 090°40'0 0.1
2017-Nov-28 14:30N 29°36' W 090°40'0 0.0
2017-Nov-28 14:00N 29°36' W 090°40'0 0.1
2017-Nov-28 13:30N 29°36' W 090°40'0 0.0
2017-Nov-28 13:00N 29°36' W 090°40'0 0.0
2017-Nov-28 12:30N 29°36' W 090°40'0 0.0
2017-Nov-28 12:00N 29°36' W 090°40'0 0.0
2017-Nov-28 11:30N 29°36' W 090°40'0 0.0
2017-Nov-28 11:00N 29°36' W 090°40'0 0.0
2017-Nov-28 10:30N 29°36' W 090°40'0 0.0
2017-Nov-28 10:00N 29°36' W 090°40'0 0.0
2017-Nov-28 09:30N 29°36' W 090°40'0 0.0
2017-Nov-28 09:00N 29°36' W 090°40'0 0.0
2017-Nov-28 08:30N 29°36' W 090°40'0 0.0
2017-Nov-28 08:00N 29°36' W 090°40'0 0.0
2017-Nov-28 07:30N 29°36' W 090°40'0 0.0
2017-Nov-28 07:00N 29°36' W 090°40'0 0.0
2017-Nov-28 06:30N 29°36' W 090°40'0 0.0
2017-Nov-28 06:00N 29°36' W 090°40'0 0.0
2017-Nov-28 05:30N 29°36' W 090°40'0 0.0
2017-Nov-28 04:27N 29°36' W 090°40'0 0.0
2017-Nov-28 04:00N 29°36' W 090°40'0 0.0
2017-Nov-28 03:30N 29°36' W 090°40'2 4.1
2017-Nov-28 03:00N 29°35' W 090°38'0 0.9
2017-Nov-28 02:30N 29°35' W 090°37'2 4.9
2017-Nov-28 02:00N 29°36' W 090°40'0 0.2
2017-Nov-28 01:30N 29°36' W 090°40'0 0.3
2017-Nov-28 01:00N 29°36' W 090°40'0 0.0
2017-Nov-28 00:30N 29°36' W 090°40'0 0.0
2017-Nov-28 00:00N 29°36' W 090°40'0 0.0
2017-Nov-27 23:30N 29°36' W 090°40'0 0.0
2017-Nov-27 23:00N 29°36' W 090°40'0 0.2
2017-Nov-27 22:30N 29°36' W 090°40'0 0.0
2017-Nov-27 22:00N 29°36' W 090°40'0 0.0
2017-Nov-27 21:30N 29°36' W 090°40'0 0.0
2017-Nov-27 21:00N 29°36' W 090°40'0 0.0
2017-Nov-27 20:30N 29°36' W 090°40'0 0.0
2017-Nov-27 20:00N 29°36' W 090°40'0 0.0
2017-Nov-27 19:30N 29°36' W 090°40'0 0.0
2017-Nov-27 19:00N 29°36' W 090°40'0 0.0
2017-Nov-27 18:30N 29°36' W 090°40'0 0.0
2017-Nov-27 18:00N 29°36' W 090°40'0 0.0
2017-Nov-27 17:30N 29°36' W 090°40'0 0.0
2017-Nov-27 17:00N 29°36' W 090°40'0 0.0
2017-Nov-27 16:30N 29°36' W 090°40'0 0.0
2017-Nov-27 16:00N 29°36' W 090°40'0 0.0
2017-Nov-27 15:30N 29°36' W 090°40'0 0.0
2017-Nov-27 15:00N 29°36' W 090°40'0 0.0
2017-Nov-27 14:30N 29°36' W 090°40'0 0.0
2017-Nov-27 14:00N 29°36' W 090°40'0 0.0
2017-Nov-27 13:30N 29°36' W 090°40'0 0.0
2017-Nov-27 13:00N 29°36' W 090°40'0 0.0
2017-Nov-27 12:30N 29°36' W 090°40'0 0.0
2017-Nov-27 12:00N 29°36' W 090°40'0 0.0
2017-Nov-27 11:30N 29°36' W 090°40'0 0.0
2017-Nov-27 11:00N 29°36' W 090°40'0 0.0
2017-Nov-27 10:27N 29°36' W 090°40'0 0.0
2017-Nov-27 09:59N 29°36' W 090°40'0 0.0
2017-Nov-27 09:29N 29°36' W 090°40'0 0.0
2017-Nov-27 09:00N 29°36' W 090°40'0 0.0
2017-Nov-27 08:30N 29°36' W 090°40'0 0.0
2017-Nov-27 08:00N 29°36' W 090°40'0 0.0
2017-Nov-27 07:30N 29°36' W 090°40'0 0.0
2017-Nov-27 07:00N 29°36' W 090°40'0 0.0
2017-Nov-27 06:27N 29°36' W 090°40'0 0.0
2017-Nov-27 05:59N 29°36' W 090°40'0 0.0
2017-Nov-27 05:30N 29°36' W 090°40'0 0.0
2017-Nov-27 05:00N 29°36' W 090°40'0 0.0
2017-Nov-27 04:30N 29°36' W 090°40'0 0.0
2017-Nov-27 04:00N 29°36' W 090°40'0 0.0
2017-Nov-27 03:30N 29°36' W 090°40'0 0.0
2017-Nov-27 03:00N 29°36' W 090°40'0 0.0
2017-Nov-27 02:30N 29°36' W 090°40'0 0.0
2017-Nov-27 02:00N 29°36' W 090°40'0 0.0
2017-Nov-27 01:30N 29°36' W 090°40'0 0.0
2017-Nov-27 01:00N 29°36' W 090°40'0 0.0
2017-Nov-27 00:30N 29°36' W 090°40'0 0.0
2017-Nov-27 00:00N 29°36' W 090°40'0 0.0
2017-Nov-26 23:29N 29°36' W 090°40'0 0.1
2017-Nov-26 23:00N 29°36' W 090°40'3 5.7
2017-Nov-26 22:30N 29°35' W 090°37'3 6.0
2017-Nov-26 22:00N 29°34' W 090°34'3 6.1
2017-Nov-26 21:28N 29°34' W 090°30'  
2017-Nov-24 17:12N 29°34' W 090°28'2 6.8
2017-Nov-24 16:58N 29°34' W 090°30'3 6.7
2017-Nov-24 16:30N 29°34' W 090°34'3 6.5
2017-Nov-24 16:00N 29°35' W 090°37'3 6.4
2017-Nov-24 15:30N 29°36' W 090°40'2 4.2
2017-Nov-24 15:00N 29°35' W 090°43'2 3.2
2017-Nov-24 14:30N 29°34' W 090°42'1 1.0
2017-Nov-24 14:00N 29°34' W 090°43'  
Track history (hours):
 
Tides and Currents Weather Stations Pressure Air Temp Water Temp Dewpoint Dewpoint Depression Visibility Wind Speed Wind Dir Waves Ship Positions

Joan Cenac

Owner: Caillou Island Towing Co., Inc., Houma, LA. More information available from US FCC via Universal Licensing System and Coast Guard Vessel Documentation Center.

Last reported at 2017-Nov-30 16:27 UTC. Time now 2018-Jan-22 15:57 UTC.
Position N 29°33' W 090°26'.
Warning: this ship's position is 52 days out of date.

Length 30 m; draft 2.5 m.

Type: Towing. MMSI: 367156710.

Date/timePositionNaut miles runAvg speedWind from/ knotsBaromVisibWave heightAir tempDewpointWater temp
2017-Nov-30 16:27N 29°33' W 090°26'3 6.9
2017-Nov-30 16:00N 29°34' W 090°30'3 6.8
2017-Nov-30 15:30N 29°34' W 090°34'3 6.2
2017-Nov-30 15:00N 29°35' W 090°37'3 6.6
2017-Nov-30 14:30N 29°36' W 090°41'2 4.1
2017-Nov-30 14:00N 29°35' W 090°43'1 1.3
2017-Nov-30 13:30N 29°35' W 090°43'0 0.0
2017-Nov-30 13:00N 29°35' W 090°43'0 0.0
2017-Nov-30 12:30N 29°35' W 090°43'0 0.0
2017-Nov-30 12:00N 29°35' W 090°43'0 0.0
2017-Nov-30 11:30N 29°35' W 090°43'0 0.0
2017-Nov-30 11:00N 29°35' W 090°43'0 0.0
2017-Nov-30 10:30N 29°35' W 090°43'0 0.0
2017-Nov-30 10:00N 29°35' W 090°43'0 0.0
2017-Nov-30 09:30N 29°35' W 090°43'0 0.0
2017-Nov-30 09:00N 29°35' W 090°43'0 0.0
2017-Nov-30 08:30N 29°35' W 090°43'0 0.0
2017-Nov-30 08:00N 29°35' W 090°43'0 0.8
2017-Nov-30 07:30N 29°34' W 090°43'3 6.1
2017-Nov-30 07:00N 29°32' W 090°46'3 6.5
2017-Nov-30 06:30N 29°32' W 090°49'7 0.8
2017-Nov-29 22:02N 29°34' W 090°57'1 6.0
2017-Nov-29 21:54N 29°34' W 090°56'4 5.9
2017-Nov-29 21:13N 29°32' W 090°52'1 6.1
2017-Nov-29 21:00N 29°32' W 090°50'3 6.1
2017-Nov-29 20:30N 29°32' W 090°47'3 5.7
2017-Nov-29 20:01N 29°34' W 090°44'2 4.9
2017-Nov-29 19:31N 29°36' W 090°43'2 3.3
2017-Nov-29 19:00N 29°36' W 090°41'1 1.6
2017-Nov-29 18:30N 29°36' W 090°40'0 0.0
2017-Nov-29 18:00N 29°36' W 090°40'0 0.0
2017-Nov-29 17:30N 29°36' W 090°40'0 0.0
2017-Nov-29 17:01N 29°36' W 090°40'0 0.1
2017-Nov-29 16:31N 29°36' W 090°40'0 0.0
2017-Nov-29 16:01N 29°36' W 090°40'0 0.0
2017-Nov-29 15:30N 29°36' W 090°40'0 0.0
2017-Nov-29 15:00N 29°36' W 090°40'0 0.0
2017-Nov-29 14:30N 29°36' W 090°40'0 0.0
2017-Nov-29 14:00N 29°36' W 090°40'0 0.0
2017-Nov-29 13:30N 29°36' W 090°40'0 0.0
2017-Nov-29 13:00N 29°36' W 090°40'0 0.0
2017-Nov-29 12:30N 29°36' W 090°40'0 0.0
2017-Nov-29 12:00N 29°36' W 090°40'0 0.0
2017-Nov-29 11:30N 29°36' W 090°40'0 0.0
2017-Nov-29 11:00N 29°36' W 090°40'0 0.0
2017-Nov-29 10:30N 29°36' W 090°40'0 0.0
2017-Nov-29 10:00N 29°36' W 090°40'0 0.0
2017-Nov-29 09:30N 29°36' W 090°40'0 0.0
2017-Nov-29 09:00N 29°36' W 090°40'0 0.0
2017-Nov-29 08:30N 29°36' W 090°40'0 0.0
2017-Nov-29 08:00N 29°36' W 090°40'0 0.0
2017-Nov-29 07:30N 29°36' W 090°40'0 0.0
2017-Nov-29 07:00N 29°36' W 090°40'0 0.0
2017-Nov-29 06:30N 29°36' W 090°40'0 0.0
2017-Nov-29 06:00N 29°36' W 090°40'0 0.0
2017-Nov-29 05:30N 29°36' W 090°40'0 0.0
2017-Nov-29 05:00N 29°36' W 090°40'0 0.0
2017-Nov-29 04:30N 29°36' W 090°40'0 0.0
2017-Nov-29 04:00N 29°36' W 090°40'0 0.0
2017-Nov-29 03:30N 29°36' W 090°40'0 0.0
2017-Nov-29 03:00N 29°36' W 090°40'0 0.0
2017-Nov-29 02:30N 29°36' W 090°40'0 0.0
2017-Nov-29 02:00N 29°36' W 090°40'0 0.0
2017-Nov-29 01:30N 29°36' W 090°40'0 0.0
2017-Nov-29 01:00N 29°36' W 090°40'0 0.0
2017-Nov-29 00:30N 29°36' W 090°40'0 0.0
2017-Nov-29 00:00N 29°36' W 090°40'0 0.0
2017-Nov-28 23:30N 29°36' W 090°40'0 0.0
2017-Nov-28 23:00N 29°36' W 090°40'0 0.0
2017-Nov-28 22:30N 29°36' W 090°40'0 0.0
2017-Nov-28 22:00N 29°36' W 090°40'0 0.0
2017-Nov-28 21:30N 29°36' W 090°40'0 0.0
2017-Nov-28 21:00N 29°36' W 090°40'0 0.0
2017-Nov-28 20:30N 29°36' W 090°40'0 0.0
2017-Nov-28 20:00N 29°36' W 090°40'0 0.0
2017-Nov-28 19:30N 29°36' W 090°40'0 0.0
2017-Nov-28 19:00N 29°36' W 090°40'0 0.0
2017-Nov-28 18:30N 29°36' W 090°40'0 0.0
2017-Nov-28 18:00N 29°36' W 090°40'0 0.0
2017-Nov-28 17:30N 29°36' W 090°40'0 0.0
2017-Nov-28 17:00N 29°36' W 090°40'0 0.0
2017-Nov-28 16:30N 29°36' W 090°40'0 0.0
2017-Nov-28 15:36N 29°36' W 090°40'0 0.0
2017-Nov-28 15:00N 29°36' W 090°40'0 0.1
2017-Nov-28 14:30N 29°36' W 090°40'0 0.0
2017-Nov-28 14:00N 29°36' W 090°40'0 0.1
2017-Nov-28 13:30N 29°36' W 090°40'0 0.0
2017-Nov-28 13:00N 29°36' W 090°40'0 0.0
2017-Nov-28 12:30N 29°36' W 090°40'0 0.0
2017-Nov-28 12:00N 29°36' W 090°40'0 0.0
2017-Nov-28 11:30N 29°36' W 090°40'0 0.0
2017-Nov-28 11:00N 29°36' W 090°40'0 0.0
2017-Nov-28 10:30N 29°36' W 090°40'0 0.0
2017-Nov-28 10:00N 29°36' W 090°40'0 0.0
2017-Nov-28 09:30N 29°36' W 090°40'0 0.0
2017-Nov-28 09:00N 29°36' W 090°40'0 0.0
2017-Nov-28 08:30N 29°36' W 090°40'0 0.0
2017-Nov-28 08:00N 29°36' W 090°40'0 0.0
2017-Nov-28 07:30N 29°36' W 090°40'0 0.0
2017-Nov-28 07:00N 29°36' W 090°40'0 0.0
2017-Nov-28 06:30N 29°36' W 090°40'0 0.0
2017-Nov-28 06:00N 29°36' W 090°40'0 0.0
2017-Nov-28 05:30N 29°36' W 090°40'0 0.0
2017-Nov-28 04:27N 29°36' W 090°40'0 0.0
2017-Nov-28 04:00N 29°36' W 090°40'0 0.0
2017-Nov-28 03:30N 29°36' W 090°40'2 4.1
2017-Nov-28 03:00N 29°35' W 090°38'0 0.9
2017-Nov-28 02:30N 29°35' W 090°37'2 4.9
2017-Nov-28 02:00N 29°36' W 090°40'0 0.2
2017-Nov-28 01:30N 29°36' W 090°40'0 0.3
2017-Nov-28 01:00N 29°36' W 090°40'0 0.0
2017-Nov-28 00:30N 29°36' W 090°40'0 0.0
2017-Nov-28 00:00N 29°36' W 090°40'0 0.0
2017-Nov-27 23:30N 29°36' W 090°40'0 0.0
2017-Nov-27 23:00N 29°36' W 090°40'0 0.2
2017-Nov-27 22:30N 29°36' W 090°40'0 0.0
2017-Nov-27 22:00N 29°36' W 090°40'0 0.0
2017-Nov-27 21:30N 29°36' W 090°40'0 0.0
2017-Nov-27 21:00N 29°36' W 090°40'0 0.0
2017-Nov-27 20:30N 29°36' W 090°40'0 0.0
2017-Nov-27 20:00N 29°36' W 090°40'0 0.0
2017-Nov-27 19:30N 29°36' W 090°40'0 0.0
2017-Nov-27 19:00N 29°36' W 090°40'0 0.0
2017-Nov-27 18:30N 29°36' W 090°40'0 0.0
2017-Nov-27 18:00N 29°36' W 090°40'0 0.0
2017-Nov-27 17:30N 29°36' W 090°40'0 0.0
2017-Nov-27 17:00N 29°36' W 090°40'0 0.0
2017-Nov-27 16:30N 29°36' W 090°40'0 0.0
2017-Nov-27 16:00N 29°36' W 090°40'0 0.0
2017-Nov-27 15:30N 29°36' W 090°40'0 0.0
2017-Nov-27 15:00N 29°36' W 090°40'0 0.0
2017-Nov-27 14:30N 29°36' W 090°40'0 0.0
2017-Nov-27 14:00N 29°36' W 090°40'0 0.0
2017-Nov-27 13:30N 29°36' W 090°40'0 0.0
2017-Nov-27 13:00N 29°36' W 090°40'0 0.0
2017-Nov-27 12:30N 29°36' W 090°40'0 0.0
2017-Nov-27 12:00N 29°36' W 090°40'0 0.0
2017-Nov-27 11:30N 29°36' W 090°40'0 0.0
2017-Nov-27 11:00N 29°36' W 090°40'0 0.0
2017-Nov-27 10:27N 29°36' W 090°40'0 0.0
2017-Nov-27 09:59N 29°36' W 090°40'0 0.0
2017-Nov-27 09:29N 29°36' W 090°40'0 0.0
2017-Nov-27 09:00N 29°36' W 090°40'0 0.0
2017-Nov-27 08:30N 29°36' W 090°40'0 0.0
2017-Nov-27 08:00N 29°36' W 090°40'0 0.0
2017-Nov-27 07:30N 29°36' W 090°40'0 0.0
2017-Nov-27 07:00N 29°36' W 090°40'0 0.0
2017-Nov-27 06:27N 29°36' W 090°40'0 0.0
2017-Nov-27 05:59N 29°36' W 090°40'0 0.0
2017-Nov-27 05:30N 29°36' W 090°40'0 0.0
2017-Nov-27 05:00N 29°36' W 090°40'0 0.0
2017-Nov-27 04:30N 29°36' W 090°40'0 0.0
2017-Nov-27 04:00N 29°36' W 090°40'0 0.0
2017-Nov-27 03:30N 29°36' W 090°40'0 0.0
2017-Nov-27 03:00N 29°36' W 090°40'0 0.0
2017-Nov-27 02:30N 29°36' W 090°40'0 0.0
2017-Nov-27 02:00N 29°36' W 090°40'0 0.0
2017-Nov-27 01:30N 29°36' W 090°40'0 0.0
2017-Nov-27 01:00N 29°36' W 090°40'0 0.0
2017-Nov-27 00:30N 29°36' W 090°40'0 0.0
2017-Nov-27 00:00N 29°36' W 090°40'0 0.0
2017-Nov-26 23:29N 29°36' W 090°40'0 0.1
2017-Nov-26 23:00N 29°36' W 090°40'3 5.7
2017-Nov-26 22:30N 29°35' W 090°37'3 6.0
2017-Nov-26 22:00N 29°34' W 090°34'3 6.1
2017-Nov-26 21:28N 29°34' W 090°30'  
2017-Nov-24 17:12N 29°34' W 090°28'2 6.8
2017-Nov-24 16:58N 29°34' W 090°30'3 6.7
2017-Nov-24 16:30N 29°34' W 090°34'3 6.5
2017-Nov-24 16:00N 29°35' W 090°37'3 6.4
2017-Nov-24 15:30N 29°36' W 090°40'2 4.2
2017-Nov-24 15:00N 29°35' W 090°43'2 3.2
2017-Nov-24 14:30N 29°34' W 090°42'1 1.0
2017-Nov-24 14:00N 29°34' W 090°43'  

Dump ship's entire track history